Aérodrome :
LOGIN :

S'inscrire | Disclaimer

   EN    FR    IT 

 










Légende :    VFR   VFR Marginal   IFR   IFR Intensif   IFR Très Intensif
Visi : 
Plafond : 
>= 8 km
>= 3000ft
5 à 8 km
1000 à 3000 ft
1500m à 5 km
500 à 1000 ft
800 à 1500m
200 à 500 ft
< 800m
< 200 ft
Symboles :   Orages  Brouillard  Fortes neiges  Fortes précipitations  Vent > 20 kt
SIGMETs :   Divers  Orages  Givrage  Turbulence  Onde Orograph.  Cendres Volcan.







- Altitude de l'aérodrome : 147 ft
- Code IATA : DUS


EDDL - Düsseldorf Int.

DERNIER METAR :
  • 241220Z 33007KT 280V020 9999 FEW040 BKN050 BKN060 18/09 Q1023 NOSIG

METARs EXPIRÉS :
  • 241150Z 32009KT 290V030 9999 FEW040 SCT052 BKN060 18/08 Q1023 NOSIG
  • 241120Z 31009KT 280V020 9999 FEW040 BKN052 18/07 Q1023 NOSIG
  • 241050Z 32008KT 260V350 9999 FEW038 BKN065 18/08 Q1023 NOSIG
  • 241020Z 32008KT 290V350 9999 FEW036 SCT110 BKN300 18/09 Q1023 NOSIG
  • 240950Z 33006KT 260V030 9999 FEW032 SCT110 BKN140 17/10 Q1023 NOSIG

TAF TAF EDDL
Valide du 24 à 12h jusqu'au 25 à 18h UTC


241100Z 2412/2518 32008KT 9999 BKN040
BECMG 2423/2502 BKN012
BECMG 2506/2509 SCT030
Pas de NOTAMs connus pour ce terrain.



MET'MAP, la Météo Aéronautique d'un coup d'oeil ! - Copyright ORBIFLY Décembre 2007 - Disclaimer

ORBIFLY MET'MAP TEAM :

Programmation & Développement : Alexandra Zaïnal
Conception & Développement : Baudouin d'Aumeries
Co-Programmation & Développement : Marc-Olivier Méhu
Soutien technique & logistique : Manuel Goepfert

Contact : metmap@orbifly.com




SOURCES & CREDITS :

   NOAA